createdAt,value
2016-11-12T00:00:03.733Z,0
2016-11-12T00:01:03.781Z,0
2016-11-12T00:02:03.756Z,0
2016-11-12T00:03:03.772Z,0
2016-11-12T00:04:03.798Z,0
2016-11-12T00:05:03.796Z,0
2016-11-12T00:06:03.814Z,0
2016-11-12T00:07:03.830Z,0
2016-11-12T00:08:03.836Z,0
2016-11-12T00:09:03.845Z,0
2016-11-12T00:10:03.860Z,0
2016-11-12T00:11:03.874Z,0
2016-11-12T00:12:03.897Z,0
2016-11-12T00:13:04.015Z,0
2016-11-12T00:14:04.048Z,0
2016-11-12T00:15:04.055Z,0
2016-11-12T00:16:04.070Z,0
2016-11-12T00:17:03.947Z,0
2016-11-12T00:18:03.963Z,0
2016-11-12T00:19:03.972Z,0
2016-11-12T00:20:03.986Z,0
2016-11-12T00:21:04.001Z,0
2016-11-12T00:22:04.020Z,0
2016-11-12T00:23:04.031Z,0
2016-11-12T00:24:04.036Z,0
2016-11-12T00:25:04.060Z,0
2016-11-12T00:26:04.064Z,0
2016-11-12T00:27:04.080Z,0
2016-11-12T00:28:04.415Z,0
2016-11-12T00:29:04.105Z,0
2016-11-12T00:30:04.147Z,0
2016-11-12T00:31:04.131Z,0
2016-11-12T00:32:04.464Z,0
2016-11-12T00:33:04.150Z,0
2016-11-12T00:34:04.174Z,0
2016-11-12T00:35:04.182Z,0
2016-11-12T00:36:04.405Z,0
2016-11-12T00:37:04.298Z,0
2016-11-12T00:38:04.308Z,0
2016-11-12T00:39:04.312Z,0
2016-11-12T00:40:04.321Z,0
2016-11-12T00:41:04.466Z,0
2016-11-12T00:42:04.299Z,0
2016-11-12T00:43:04.311Z,0
2016-11-12T00:44:04.310Z,0
2016-11-12T00:45:04.635Z,0
2016-11-12T00:46:04.330Z,0
2016-11-12T00:47:04.329Z,0
2016-11-12T00:48:04.351Z,0
2016-11-12T00:49:04.361Z,0
2016-11-12T00:50:04.372Z,0
2016-11-12T00:51:04.383Z,0
2016-11-12T00:52:04.392Z,0
2016-11-12T00:53:04.410Z,0
2016-11-12T00:54:04.420Z,0
2016-11-12T00:55:04.630Z,0
2016-11-12T00:56:04.451Z,0
2016-11-12T00:57:04.457Z,0
2016-11-12T00:58:04.500Z,0
2016-11-12T00:59:04.487Z,0
2016-11-12T01:00:04.503Z,0
2016-11-12T01:01:04.829Z,0
2016-11-12T01:02:04.529Z,0
2016-11-12T01:03:04.656Z,0
2016-11-12T01:04:04.592Z,0
2016-11-12T01:05:04.562Z,0
2016-11-12T01:06:04.592Z,0
2016-11-12T01:07:04.596Z,0
2016-11-12T01:08:04.630Z,0
2016-11-12T01:09:04.605Z,0
2016-11-12T01:10:04.625Z,0
2016-11-12T01:11:04.684Z,0
2016-11-12T01:12:04.664Z,0
2016-11-12T01:13:04.774Z,0
2016-11-12T01:14:04.673Z,0
2016-11-12T01:15:04.688Z,0
2016-11-12T01:16:04.718Z,0
2016-11-12T01:17:04.826Z,0
2016-11-12T01:18:04.735Z,0
2016-11-12T01:19:04.731Z,0
2016-11-12T01:20:04.758Z,0
2016-11-12T01:21:04.763Z,0
2016-11-12T01:22:04.779Z,0
2016-11-12T01:23:04.780Z,0
2016-11-12T01:24:04.796Z,0
2016-11-12T01:25:04.810Z,0
2016-11-12T01:26:05.006Z,0
2016-11-12T01:27:04.957Z,0
2016-11-12T01:28:04.860Z,0
2016-11-12T01:29:04.864Z,0
2016-11-12T01:30:04.991Z,0
2016-11-12T01:31:04.997Z,0
2016-11-12T01:32:05.690Z,0
2016-11-12T01:33:04.909Z,0
2016-11-12T01:34:05.072Z,0
2016-11-12T01:35:05.350Z,0
2016-11-12T01:36:05.098Z,0
2016-11-12T01:37:05.063Z,0
2016-11-12T01:38:05.064Z,0
2016-11-12T01:39:05.064Z,0
2016-11-12T01:40:05.096Z,0
2016-11-12T01:41:05.081Z,0
2016-11-12T01:42:05.142Z,0
2016-11-12T01:43:05.139Z,0
2016-11-12T01:44:05.070Z,0
2016-11-12T01:45:05.076Z,0
2016-11-12T01:46:05.084Z,0
2016-11-12T01:47:05.399Z,0
2016-11-12T01:48:05.364Z,0
2016-11-12T01:49:05.109Z,0
2016-11-12T01:50:05.133Z,0
2016-11-12T01:51:05.455Z,0
2016-11-12T01:52:05.159Z,0
2016-11-12T01:53:05.166Z,0
2016-11-12T01:54:05.180Z,0
2016-11-12T01:55:05.187Z,0
2016-11-12T01:56:05.214Z,0
2016-11-12T01:57:05.218Z,0
2016-11-12T01:58:05.230Z,0
2016-11-12T01:59:05.239Z,0
2016-11-12T02:00:05.251Z,0
2016-11-12T02:01:05.263Z,0
2016-11-12T02:02:05.338Z,0
2016-11-12T02:03:05.280Z,0
2016-11-12T02:04:05.325Z,0
2016-11-12T02:05:05.313Z,0
2016-11-12T02:06:05.333Z,0
2016-11-12T02:07:05.341Z,0
2016-11-12T02:08:05.365Z,0
2016-11-12T02:09:05.373Z,0
2016-11-12T02:10:05.395Z,0
2016-11-12T02:11:05.387Z,0
2016-11-12T02:12:05.405Z,0
2016-11-12T02:13:05.415Z,0
2016-11-12T02:14:05.426Z,0
2016-11-12T02:15:05.446Z,0
2016-11-12T02:16:05.453Z,0
2016-11-12T02:17:05.459Z,0
2016-11-12T02:18:05.485Z,0
2016-11-12T02:19:05.489Z,0
2016-11-12T02:20:05.525Z,0
2016-11-12T02:21:05.517Z,0
2016-11-12T02:22:05.517Z,0
2016-11-12T02:23:05.865Z,0
2016-11-12T02:24:05.780Z,0
2016-11-12T02:25:05.570Z,0
2016-11-12T02:26:05.586Z,0
2016-11-12T02:27:05.591Z,0
2016-11-12T02:28:05.597Z,0
2016-11-12T02:29:05.615Z,0
2016-11-12T02:30:05.623Z,0
2016-11-12T02:31:05.634Z,0
2016-11-12T02:32:05.650Z,0
2016-11-12T02:33:05.691Z,0
2016-11-12T02:34:06.007Z,0
2016-11-12T02:35:05.678Z,0
2016-11-12T02:36:05.698Z,0
2016-11-12T02:37:05.710Z,0
2016-11-12T02:38:05.724Z,0
2016-11-12T02:39:05.743Z,0
2016-11-12T02:40:05.755Z,0
2016-11-12T02:41:05.760Z,0
2016-11-12T02:42:05.770Z,0
2016-11-12T02:43:05.783Z,0
2016-11-12T02:44:05.800Z,0
2016-11-12T02:45:05.805Z,0
2016-11-12T02:46:05.826Z,0
2016-11-12T02:47:05.835Z,0
2016-11-12T02:48:05.846Z,0
2016-11-12T02:49:05.863Z,0
2016-11-12T02:50:05.872Z,0
2016-11-12T02:51:05.881Z,0
2016-11-12T02:52:05.900Z,0
2016-11-12T02:53:05.906Z,0
2016-11-12T02:54:05.964Z,0
2016-11-12T02:55:05.940Z,0
2016-11-12T02:56:05.944Z,0
2016-11-12T02:57:06.085Z,0
2016-11-12T02:58:06.097Z,0
2016-11-12T02:59:05.984Z,0
2016-11-12T03:00:06.069Z,0
2016-11-12T03:01:06.063Z,0
2016-11-12T03:02:06.131Z,0
2016-11-12T03:03:06.034Z,0
2016-11-12T03:04:06.130Z,0
2016-11-12T03:05:06.170Z,0
2016-11-12T03:06:06.068Z,0
2016-11-12T03:07:06.081Z,0
2016-11-12T03:08:06.213Z,0
2016-11-12T03:09:06.253Z,0
2016-11-12T03:10:06.233Z,0
2016-11-12T03:11:06.135Z,0
2016-11-12T03:12:06.248Z,0
2016-11-12T03:13:06.159Z,0
2016-11-12T03:14:06.288Z,0
2016-11-12T03:15:06.210Z,0
2016-11-12T03:16:06.205Z,0
2016-11-12T03:17:06.215Z,0
2016-11-12T03:18:06.227Z,0
2016-11-12T03:19:06.299Z,0
2016-11-12T03:20:06.253Z,0
2016-11-12T03:21:06.303Z,0
2016-11-12T03:22:06.429Z,0
2016-11-12T03:23:06.290Z,0
2016-11-12T03:24:06.339Z,0
2016-11-12T03:25:06.315Z,0
2016-11-12T03:26:06.326Z,0
2016-11-12T03:27:06.334Z,0
2016-11-12T03:28:06.341Z,0
2016-11-12T03:29:06.359Z,0
2016-11-12T03:30:06.372Z,0
2016-11-12T03:31:06.382Z,0
2016-11-12T03:32:06.397Z,0
2016-11-12T03:33:06.404Z,0
2016-11-12T03:34:06.419Z,0
2016-11-12T03:35:06.434Z,0
2016-11-12T03:36:06.443Z,0
2016-11-12T03:37:06.460Z,0
2016-11-12T03:38:06.470Z,0
2016-11-12T03:39:06.482Z,0
2016-11-12T03:40:06.506Z,0
2016-11-12T03:41:06.502Z,0
2016-11-12T03:42:06.514Z,0
2016-11-12T03:43:06.675Z,0
2016-11-12T03:44:06.548Z,0
2016-11-12T03:45:06.558Z,0
2016-11-12T03:46:06.574Z,0
2016-11-12T03:47:06.794Z,0
2016-11-12T03:48:06.593Z,0
2016-11-12T03:49:06.718Z,0
2016-11-12T03:50:06.614Z,0
2016-11-12T03:51:06.738Z,0
2016-11-12T03:52:06.659Z,0
2016-11-12T03:53:06.649Z,0
2016-11-12T03:54:06.794Z,0
2016-11-12T03:55:06.676Z,0
2016-11-12T03:56:06.823Z,0
2016-11-12T03:57:06.820Z,0
2016-11-12T03:58:06.713Z,0
2016-11-12T03:59:06.725Z,0
2016-11-12T04:00:06.748Z,0
2016-11-12T04:01:06.747Z,0
2016-11-12T04:02:06.766Z,0
2016-11-12T04:03:06.783Z,0
2016-11-12T04:04:06.835Z,0
2016-11-12T04:05:06.803Z,0
2016-11-12T04:06:06.830Z,0
2016-11-12T04:07:06.823Z,0
2016-11-12T04:08:06.838Z,0
2016-11-12T04:09:06.905Z,0
2016-11-12T04:10:06.866Z,0
2016-11-12T04:11:06.874Z,0
2016-11-12T04:12:06.903Z,0
2016-11-12T04:13:07.219Z,0
2016-11-12T04:14:07.018Z,0
2016-11-12T04:15:06.956Z,0
2016-11-12T04:16:06.932Z,0
2016-11-12T04:17:06.945Z,0
2016-11-12T04:18:06.966Z,0
2016-11-12T04:19:07.288Z,0
2016-11-12T04:20:07.073Z,0
2016-11-12T04:21:07.108Z,0
2016-11-12T04:22:07.023Z,0
2016-11-12T04:23:07.022Z,0
2016-11-12T04:24:07.164Z,0
2016-11-12T04:25:07.118Z,0
2016-11-12T04:26:07.055Z,0
2016-11-12T04:27:07.389Z,0
2016-11-12T04:28:07.120Z,0
2016-11-12T04:29:07.095Z,0
2016-11-12T04:30:07.122Z,0
2016-11-12T04:31:07.119Z,0
2016-11-12T04:32:07.252Z,0
2016-11-12T04:33:07.141Z,0
2016-11-12T04:34:07.182Z,0
2016-11-12T04:35:07.170Z,0
2016-11-12T04:36:07.183Z,0
2016-11-12T04:37:07.504Z,0
2016-11-12T04:38:07.349Z,0
2016-11-12T04:39:07.335Z,0
2016-11-12T04:40:07.230Z,0
2016-11-12T04:41:07.554Z,0
2016-11-12T04:42:07.311Z,0
2016-11-12T04:43:07.268Z,0
2016-11-12T04:44:07.448Z,0
2016-11-12T04:45:07.415Z,0
2016-11-12T04:46:07.306Z,0
2016-11-12T04:47:07.330Z,0
2016-11-12T04:48:07.333Z,0
2016-11-12T04:49:07.341Z,0
2016-11-12T04:50:07.369Z,0
2016-11-12T04:51:07.488Z,0
2016-11-12T04:52:07.392Z,0
2016-11-12T04:53:07.394Z,0
2016-11-12T04:54:07.403Z,0
2016-11-12T04:55:07.446Z,0
2016-11-12T04:56:07.446Z,0
2016-11-12T04:57:07.442Z,0
2016-11-12T04:58:07.468Z,0
2016-11-12T04:59:07.473Z,0
2016-11-12T05:00:07.829Z,0
2016-11-12T05:01:07.604Z,0
2016-11-12T05:02:07.501Z,0
2016-11-12T05:03:07.634Z,0
2016-11-12T05:04:08.011Z,0
2016-11-12T05:05:07.647Z,0
2016-11-12T05:06:07.557Z,0
2016-11-12T05:07:07.561Z,0
2016-11-12T05:08:07.571Z,0
2016-11-12T05:09:07.587Z,0
2016-11-12T05:10:07.726Z,0
2016-11-12T05:11:07.611Z,0
2016-11-12T05:12:07.756Z,0
2016-11-12T05:13:07.730Z,0
2016-11-12T05:14:07.644Z,0
2016-11-12T05:15:07.661Z,0
2016-11-12T05:16:07.676Z,0
2016-11-12T05:17:07.688Z,0
2016-11-12T05:18:07.932Z,0
2016-11-12T05:19:07.711Z,0
2016-11-12T05:20:07.746Z,0
2016-11-12T05:21:07.737Z,0
2016-11-12T05:22:07.748Z,0
2016-11-12T05:23:07.763Z,0
2016-11-12T05:24:07.773Z,0
2016-11-12T05:25:07.791Z,0
2016-11-12T05:26:07.850Z,0
2016-11-12T05:27:07.969Z,0
2016-11-12T05:28:07.831Z,0
2016-11-12T05:29:07.941Z,0
2016-11-12T05:30:07.851Z,0
2016-11-12T05:31:07.862Z,0
2016-11-12T05:32:08.178Z,0
2016-11-12T05:33:07.883Z,0
2016-11-12T05:34:07.900Z,0
2016-11-12T05:35:07.927Z,0
2016-11-12T05:36:07.916Z,0
2016-11-12T05:37:07.935Z,0
2016-11-12T05:38:07.950Z,0
2016-11-12T05:39:07.956Z,0
2016-11-12T05:40:07.969Z,0
2016-11-12T05:41:07.985Z,0
2016-11-12T05:42:07.998Z,0
2016-11-12T05:43:08.008Z,0
2016-11-12T05:44:08.015Z,0
2016-11-12T05:45:08.348Z,0
2016-11-12T05:46:08.044Z,0
2016-11-12T05:47:08.142Z,0
2016-11-12T05:48:08.188Z,0
2016-11-12T05:49:08.088Z,0
2016-11-12T05:50:08.211Z,0
2016-11-12T05:51:08.114Z,0
2016-11-12T05:52:08.120Z,4
2016-11-12T05:53:08.128Z,4
2016-11-12T05:54:08.141Z,4
2016-11-12T05:55:08.185Z,4
2016-11-12T05:56:08.177Z,4
2016-11-12T05:57:08.176Z,4
2016-11-12T05:58:08.195Z,4
2016-11-12T05:59:08.208Z,4
2016-11-12T06:00:08.529Z,4
2016-11-12T06:01:08.225Z,4
2016-11-12T06:02:08.236Z,4
2016-11-12T06:03:08.253Z,4
2016-11-12T06:04:08.279Z,0
2016-11-12T06:05:08.593Z,4
2016-11-12T06:06:08.296Z,4
2016-11-12T06:07:08.625Z,4
2016-11-12T06:08:08.314Z,4
2016-11-12T06:09:08.325Z,4
2016-11-12T06:10:08.339Z,8
2016-11-12T06:11:08.349Z,4
2016-11-12T06:12:08.360Z,4
2016-11-12T06:13:08.381Z,4
2016-11-12T06:14:08.384Z,8
2016-11-12T06:15:08.400Z,8
2016-11-12T06:16:08.416Z,12
2016-11-12T06:17:08.421Z,8
2016-11-12T06:18:08.447Z,12
2016-11-12T06:19:08.453Z,8
2016-11-12T06:20:08.459Z,8
2016-11-12T06:21:08.484Z,12
2016-11-12T06:22:08.489Z,12
2016-11-12T06:23:08.496Z,16
2016-11-12T06:24:08.514Z,16
2016-11-12T06:25:08.523Z,16
2016-11-12T06:26:08.563Z,16
2016-11-12T06:27:08.546Z,16
2016-11-12T06:28:08.563Z,20
2016-11-12T06:29:08.614Z,16
2016-11-12T06:30:08.598Z,20
2016-11-12T06:31:08.607Z,24
2016-11-12T06:32:08.612Z,24
2016-11-12T06:33:08.622Z,24
2016-11-12T06:34:08.632Z,28
2016-11-12T06:35:08.650Z,24
2016-11-12T06:36:08.666Z,24
2016-11-12T06:37:08.680Z,32
2016-11-12T06:38:08.689Z,28
2016-11-12T06:39:08.699Z,32
2016-11-12T06:40:08.709Z,32
2016-11-12T06:41:08.732Z,36
2016-11-12T06:42:08.770Z,40
2016-11-12T06:43:08.746Z,44
2016-11-12T06:44:08.758Z,48
2016-11-12T06:45:08.778Z,52
2016-11-12T06:46:08.785Z,48
2016-11-12T06:47:08.798Z,52
2016-11-12T06:48:08.813Z,52
2016-11-12T06:49:08.838Z,44
2016-11-12T06:50:08.847Z,40
2016-11-12T06:51:08.842Z,48
2016-11-12T06:52:08.883Z,56
2016-11-12T06:53:08.876Z,60
2016-11-12T06:54:08.880Z,64
2016-11-12T06:55:08.908Z,64
2016-11-12T06:56:08.935Z,68
2016-11-12T06:57:08.919Z,72
2016-11-12T06:58:08.934Z,80
2016-11-12T06:59:08.942Z,84
2016-11-12T07:00:08.958Z,108
2016-11-12T07:01:09.292Z,144
2016-11-12T07:02:09.009Z,128
2016-11-12T07:03:09.107Z,116
2016-11-12T07:04:09.002Z,136
2016-11-12T07:05:09.025Z,132
2016-11-12T07:06:09.151Z,132
2016-11-12T07:07:09.162Z,148
2016-11-12T07:08:09.140Z,144
2016-11-12T07:09:09.122Z,136
2016-11-12T07:10:09.284Z,120
2016-11-12T07:11:09.093Z,108
2016-11-12T07:12:09.219Z,144
2016-11-12T07:13:09.229Z,164
2016-11-12T07:14:09.237Z,172
2016-11-12T07:15:09.236Z,184
2016-11-12T07:16:09.269Z,192
2016-11-12T07:17:09.278Z,196
2016-11-12T07:18:09.286Z,208
2016-11-12T07:19:09.295Z,216
2016-11-12T07:20:09.306Z,216
2016-11-12T07:21:09.322Z,212
2016-11-12T07:22:09.327Z,216
2016-11-12T07:23:09.336Z,228
2016-11-12T07:24:09.345Z,232
2016-11-12T07:25:09.583Z,232
2016-11-12T07:26:09.352Z,240
2016-11-12T07:27:09.307Z,240
2016-11-12T07:28:09.305Z,224
2016-11-12T07:29:09.317Z,224
2016-11-12T07:30:09.357Z,228
2016-11-12T07:31:09.348Z,256
2016-11-12T07:32:09.359Z,268
2016-11-12T07:33:09.365Z,268
2016-11-12T07:34:09.377Z,252
2016-11-12T07:35:09.401Z,264
2016-11-12T07:36:09.423Z,284
2016-11-12T07:37:09.418Z,276
2016-11-12T07:38:09.456Z,284
2016-11-12T07:39:09.441Z,264
2016-11-12T07:40:09.462Z,268
2016-11-12T07:41:09.592Z,280
2016-11-12T07:42:09.613Z,288
2016-11-12T07:43:09.623Z,292
2016-11-12T07:44:09.626Z,300
2016-11-12T07:45:09.629Z,300
2016-11-12T07:46:09.603Z,300
2016-11-12T07:47:09.863Z,288
2016-11-12T07:48:09.608Z,292
2016-11-12T07:49:09.618Z,292
2016-11-12T07:50:09.628Z,304
2016-11-12T07:51:09.634Z,320
2016-11-12T07:52:09.644Z,320
2016-11-12T07:53:09.646Z,324
2016-11-12T07:54:09.647Z,300
2016-11-12T07:55:09.660Z,276
2016-11-12T07:56:09.672Z,284
2016-11-12T07:57:09.678Z,316
2016-11-12T07:58:09.782Z,356
2016-11-12T07:59:09.692Z,388
2016-11-12T08:00:09.704Z,392
2016-11-12T08:01:09.718Z,384
2016-11-12T08:02:09.854Z,380
2016-11-12T08:03:09.749Z,392
2016-11-12T08:04:09.761Z,420
2016-11-12T08:05:09.767Z,456
2016-11-12T08:06:09.813Z,464
2016-11-12T08:07:09.791Z,472
2016-11-12T08:08:09.820Z,468
2016-11-12T08:09:09.815Z,424
2016-11-12T08:10:09.831Z,404
2016-11-12T08:11:09.880Z,428
2016-11-12T08:12:09.857Z,468
2016-11-12T08:13:09.868Z,500
2016-11-12T08:14:09.886Z,512
2016-11-12T08:15:09.895Z,504
2016-11-12T08:16:09.914Z,504
2016-11-12T08:17:09.923Z,516
2016-11-12T08:18:09.929Z,528
2016-11-12T08:19:09.949Z,536
2016-11-12T08:20:09.963Z,504
2016-11-12T08:21:09.975Z,476
2016-11-12T08:22:09.988Z,468
2016-11-12T08:23:09.990Z,484
2016-11-12T08:24:10.069Z,516
2016-11-12T08:25:10.026Z,516
2016-11-12T08:26:10.029Z,512
2016-11-12T08:27:10.365Z,496
2016-11-12T08:28:10.061Z,476
2016-11-12T08:29:10.069Z,472
2016-11-12T08:30:10.088Z,536
2016-11-12T08:31:10.090Z,540
2016-11-12T08:32:10.109Z,516
2016-11-12T08:33:10.157Z,488
2016-11-12T08:34:10.132Z,472
2016-11-12T08:35:10.456Z,492
2016-11-12T08:36:10.162Z,524
2016-11-12T08:37:10.174Z,544
2016-11-12T08:38:10.234Z,540
2016-11-12T08:39:10.196Z,504
2016-11-12T08:40:10.208Z,484
2016-11-12T08:41:10.219Z,452
2016-11-12T08:42:10.234Z,456
2016-11-12T08:43:10.246Z,464
2016-11-12T08:44:10.263Z,472
2016-11-12T08:45:10.276Z,476
2016-11-12T08:46:10.294Z,496
2016-11-12T08:47:10.300Z,484
2016-11-12T08:48:10.309Z,476
2016-11-12T08:49:10.321Z,476
2016-11-12T08:50:10.337Z,476
2016-11-12T08:51:10.361Z,492
2016-11-12T08:52:10.364Z,468
2016-11-12T08:53:10.373Z,456
2016-11-12T08:54:10.395Z,456
2016-11-12T08:55:10.401Z,496
2016-11-12T08:56:10.413Z,492
2016-11-12T08:57:10.428Z,528
2016-11-12T08:58:10.440Z,536
2016-11-12T08:59:10.451Z,512
2016-11-12T09:00:10.464Z,520
2016-11-12T09:01:10.523Z,524
2016-11-12T09:02:10.495Z,532
2016-11-12T09:03:10.513Z,512
2016-11-12T09:04:10.517Z,508
2016-11-12T09:05:10.525Z,532
2016-11-12T09:06:10.548Z,564
2016-11-12T09:07:10.556Z,580
2016-11-12T09:08:10.570Z,612
2016-11-12T09:09:10.618Z,624
2016-11-12T09:10:10.596Z,596
2016-11-12T09:11:10.605Z,588
2016-11-12T09:12:10.624Z,644
2016-11-12T09:13:10.639Z,712
2016-11-12T09:14:10.645Z,800
2016-11-12T09:15:10.654Z,856
2016-11-12T09:16:10.668Z,860
2016-11-12T09:17:10.687Z,828
2016-11-12T09:18:10.699Z,844
2016-11-12T09:19:10.711Z,856
2016-11-12T09:20:11.334Z,804
2016-11-12T09:21:10.737Z,808
2016-11-12T09:22:10.767Z,848
2016-11-12T09:23:10.773Z,840
2016-11-12T09:24:10.778Z,804
2016-11-12T09:25:10.788Z,780
2016-11-12T09:26:10.804Z,800
2016-11-12T09:27:10.814Z,800
2016-11-12T09:28:10.826Z,800
2016-11-12T09:29:10.835Z,748
2016-11-12T09:30:10.850Z,672
2016-11-12T09:31:10.867Z,640
2016-11-12T09:32:10.885Z,672
2016-11-12T09:33:10.893Z,760
2016-11-12T09:34:10.901Z,664
2016-11-12T09:35:10.918Z,496
2016-11-12T09:36:10.929Z,488
2016-11-12T09:37:10.943Z,456
2016-11-12T09:38:10.951Z,488
2016-11-12T09:39:10.970Z,516
2016-11-12T09:40:11.401Z,552
2016-11-12T09:41:10.995Z,568
2016-11-12T09:42:11.009Z,588
2016-11-12T09:43:11.022Z,572
2016-11-12T09:44:11.039Z,604
2016-11-12T09:45:11.051Z,616
2016-11-12T09:46:11.061Z,616
2016-11-12T09:47:11.073Z,620
2016-11-12T09:48:11.089Z,636
2016-11-12T09:49:11.098Z,692
2016-11-12T09:50:11.233Z,696
2016-11-12T09:51:11.226Z,720
2016-11-12T09:52:11.220Z,736
2016-11-12T09:53:11.388Z,704
2016-11-12T09:54:11.396Z,664
2016-11-12T09:55:11.401Z,588
2016-11-12T09:56:11.386Z,588
2016-11-12T09:57:11.411Z,548
2016-11-12T09:58:11.422Z,524
2016-11-12T09:59:11.438Z,600
2016-11-12T10:00:11.444Z,596
2016-11-12T10:01:11.572Z,644
2016-11-12T10:02:11.447Z,648
2016-11-12T10:03:11.461Z,580
2016-11-12T10:04:11.498Z,548
2016-11-12T10:05:11.500Z,544
2016-11-12T10:06:11.871Z,552
2016-11-12T10:07:11.523Z,552
2016-11-12T10:08:11.541Z,512
2016-11-12T10:09:11.537Z,512
2016-11-12T10:10:11.549Z,496
2016-11-12T10:11:11.622Z,472
2016-11-12T10:12:11.533Z,520
2016-11-12T10:13:11.566Z,588
2016-11-12T10:14:11.578Z,580
2016-11-12T10:15:11.588Z,528
2016-11-12T10:16:11.706Z,480
2016-11-12T10:17:11.557Z,464
2016-11-12T10:18:11.602Z,488
2016-11-12T10:19:11.574Z,556
2016-11-12T10:20:11.653Z,568
2016-11-12T10:21:11.621Z,640
2016-11-12T10:22:11.620Z,668
2016-11-12T10:23:11.593Z,680
2016-11-12T10:24:11.603Z,740
2016-11-12T10:25:11.622Z,756
2016-11-12T10:26:11.612Z,792
2016-11-12T10:27:11.619Z,1044
2016-11-12T10:28:11.669Z,964
2016-11-12T10:29:11.624Z,744
2016-11-12T10:30:11.640Z,668
2016-11-12T10:31:11.652Z,748
2016-11-12T10:32:11.677Z,816
2016-11-12T10:33:11.681Z,660
2016-11-12T10:34:11.926Z,660
2016-11-12T10:35:11.706Z,736
2016-11-12T10:36:11.721Z,848
2016-11-12T10:37:11.735Z,840
2016-11-12T10:38:11.747Z,776
2016-11-12T10:39:11.760Z,936
2016-11-12T10:40:11.782Z,816
2016-11-12T10:41:11.787Z,764
2016-11-12T10:42:11.796Z,736
2016-11-12T10:43:11.816Z,816
2016-11-12T10:44:11.825Z,788
2016-11-12T10:45:11.838Z,864
2016-11-12T10:46:11.847Z,984
2016-11-12T10:47:11.861Z,1052
2016-11-12T10:48:11.877Z,888
2016-11-12T10:49:11.930Z,700
2016-11-12T10:50:11.905Z,736
2016-11-12T10:51:11.920Z,848
2016-11-12T10:52:11.936Z,692
2016-11-12T10:53:11.945Z,784
2016-11-12T10:54:11.961Z,896
2016-11-12T10:55:11.969Z,888
2016-11-12T10:56:11.984Z,892
2016-11-12T10:57:12.009Z,840
2016-11-12T10:58:12.340Z,1108
2016-11-12T10:59:12.039Z,1168
2016-11-12T11:00:12.039Z,1068
2016-11-12T11:01:12.059Z,1024
2016-11-12T11:02:12.074Z,968
2016-11-12T11:03:12.114Z,1020
2016-11-12T11:04:12.091Z,952
2016-11-12T11:05:12.116Z,872
2016-11-12T11:06:12.120Z,924
2016-11-12T11:07:12.128Z,1012
2016-11-12T11:08:12.143Z,848
2016-11-12T11:09:12.159Z,756
2016-11-12T11:10:12.176Z,764
2016-11-12T11:11:12.225Z,692
2016-11-12T11:12:12.199Z,760
2016-11-12T11:13:12.215Z,728
2016-11-12T11:14:12.231Z,636
2016-11-12T11:15:12.234Z,756
2016-11-12T11:16:12.253Z,728
2016-11-12T11:17:12.268Z,852
2016-11-12T11:18:12.289Z,936
2016-11-12T11:19:12.290Z,820
2016-11-12T11:20:12.318Z,628
2016-11-12T11:21:12.328Z,496
2016-11-12T11:22:12.330Z,496
2016-11-12T11:23:12.348Z,488
2016-11-12T11:24:12.370Z,460
2016-11-12T11:25:12.385Z,428
2016-11-12T11:26:12.409Z,416
2016-11-12T11:27:12.411Z,492
2016-11-12T11:28:12.421Z,684
2016-11-12T11:29:12.432Z,652
2016-11-12T11:30:12.453Z,700
2016-11-12T11:31:12.460Z,844
2016-11-12T11:32:12.792Z,848
2016-11-12T11:33:12.485Z,840
2016-11-12T11:34:12.504Z,720
2016-11-12T11:35:12.513Z,576
2016-11-12T11:36:12.527Z,472
2016-11-12T11:37:12.545Z,516
2016-11-12T11:38:12.560Z,564
2016-11-12T11:39:12.572Z,684
2016-11-12T11:40:12.716Z,700
2016-11-12T11:41:12.607Z,768
2016-11-12T11:42:12.613Z,724
2016-11-12T11:43:12.639Z,724
2016-11-12T11:44:12.648Z,752
2016-11-12T11:45:12.649Z,792
2016-11-12T11:46:12.660Z,712
2016-11-12T11:47:12.682Z,672
2016-11-12T11:48:12.697Z,772
2016-11-12T11:49:12.704Z,880
2016-11-12T11:50:12.716Z,1020
2016-11-12T11:51:12.736Z,1148
2016-11-12T11:52:12.747Z,1212
2016-11-12T11:53:12.770Z,1284
2016-11-12T11:54:12.773Z,1328
2016-11-12T11:55:12.787Z,1336
2016-11-12T11:56:12.852Z,1308
2016-11-12T11:57:12.817Z,1288
2016-11-12T11:58:12.827Z,1368
2016-11-12T11:59:12.843Z,1392
2016-11-12T12:00:12.861Z,1280
2016-11-12T12:01:12.871Z,1104
2016-11-12T12:02:12.886Z,1008
2016-11-12T12:03:12.896Z,1056
2016-11-12T12:04:12.915Z,1040
2016-11-12T12:05:12.927Z,1100
2016-11-12T12:06:12.945Z,1120
2016-11-12T12:07:12.962Z,1108
2016-11-12T12:08:12.971Z,1096
2016-11-12T12:09:12.984Z,1048
2016-11-12T12:10:12.995Z,1064
2016-11-12T12:11:13.015Z,1040
2016-11-12T12:12:13.027Z,1016
2016-11-12T12:13:13.040Z,1020
2016-11-12T12:14:13.366Z,1040
2016-11-12T12:15:13.070Z,1072
2016-11-12T12:16:13.077Z,1012
2016-11-12T12:17:13.096Z,908
2016-11-12T12:18:13.109Z,828
2016-11-12T12:19:13.121Z,832
2016-11-12T12:20:13.143Z,920
2016-11-12T12:21:13.148Z,980
2016-11-12T12:22:13.164Z,1012
2016-11-12T12:23:13.191Z,1004
2016-11-12T12:24:13.193Z,1024
2016-11-12T12:25:13.211Z,1076
2016-11-12T12:26:13.226Z,1096
2016-11-12T12:27:13.234Z,1132
2016-11-12T12:28:13.250Z,1180
2016-11-12T12:29:13.257Z,1240
2016-11-12T12:30:13.316Z,1268
2016-11-12T12:31:13.293Z,1268
2016-11-12T12:32:13.334Z,1284
2016-11-12T12:33:13.325Z,1288
2016-11-12T12:34:13.333Z,1184
2016-11-12T12:35:13.355Z,1112
2016-11-12T12:36:13.368Z,1044
2016-11-12T12:37:13.378Z,1032
2016-11-12T12:38:13.456Z,1020
2016-11-12T12:39:13.402Z,1008
2016-11-12T12:40:13.421Z,1016
2016-11-12T12:41:13.452Z,1020
2016-11-12T12:42:13.448Z,1028
2016-11-12T12:43:13.461Z,1004
2016-11-12T12:44:13.472Z,972
2016-11-12T12:45:13.494Z,992
2016-11-12T12:46:13.614Z,992
2016-11-12T12:47:13.518Z,956
2016-11-12T12:48:13.529Z,964
2016-11-12T12:49:13.544Z,976
2016-11-12T12:50:13.557Z,996
2016-11-12T12:51:13.566Z,1032
2016-11-12T12:52:13.588Z,1056
2016-11-12T12:53:13.600Z,1044
2016-11-12T12:54:13.616Z,1044
2016-11-12T12:55:13.638Z,1064
2016-11-12T12:56:13.648Z,1080
2016-11-12T12:57:13.657Z,1084
2016-11-12T12:58:13.671Z,1084
2016-11-12T12:59:13.694Z,1112
2016-11-12T13:00:13.700Z,1112
2016-11-12T13:01:13.712Z,1104
2016-11-12T13:02:13.733Z,1080
2016-11-12T13:03:13.751Z,1008
2016-11-12T13:04:13.778Z,932
2016-11-12T13:05:13.771Z,884
2016-11-12T13:06:13.787Z,856
2016-11-12T13:07:13.798Z,836
2016-11-12T13:08:13.809Z,856
2016-11-12T13:09:13.827Z,888
2016-11-12T13:10:13.845Z,896
2016-11-12T13:11:13.858Z,904
2016-11-12T13:12:13.870Z,872
2016-11-12T13:13:13.886Z,844
2016-11-12T13:14:13.937Z,808
2016-11-12T13:15:13.915Z,792
2016-11-12T13:16:13.921Z,780
2016-11-12T13:17:13.934Z,792
2016-11-12T13:18:13.970Z,800
2016-11-12T13:19:13.986Z,776
2016-11-12T13:20:13.983Z,712
2016-11-12T13:21:13.996Z,644
2016-11-12T13:22:14.014Z,608
2016-11-12T13:23:14.019Z,580
2016-11-12T13:24:14.036Z,568
2016-11-12T13:25:14.052Z,580
2016-11-12T13:26:14.069Z,576
2016-11-12T13:27:14.083Z,544
2016-11-12T13:28:14.096Z,512
2016-11-12T13:29:14.111Z,496
2016-11-12T13:30:14.130Z,528
2016-11-12T13:31:14.144Z,568
2016-11-12T13:32:14.151Z,588
2016-11-12T13:33:14.172Z,608
2016-11-12T13:34:14.184Z,640
2016-11-12T13:35:14.190Z,672
2016-11-12T13:36:14.207Z,700
2016-11-12T13:37:14.220Z,708
2016-11-12T13:38:14.236Z,684
2016-11-12T13:39:14.270Z,656
2016-11-12T13:40:14.269Z,632
2016-11-12T13:41:14.291Z,608
2016-11-12T13:42:14.295Z,560
2016-11-12T13:43:14.319Z,512
2016-11-12T13:44:14.359Z,500
2016-11-12T13:45:14.335Z,512
2016-11-12T13:46:14.403Z,532
2016-11-12T13:47:14.364Z,552
2016-11-12T13:48:14.383Z,548
2016-11-12T13:49:14.398Z,524
2016-11-12T13:50:14.407Z,488
2016-11-12T13:51:14.423Z,448
2016-11-12T13:52:14.439Z,420
2016-11-12T13:53:14.454Z,400
2016-11-12T13:54:14.468Z,384
2016-11-12T13:55:14.552Z,368
2016-11-12T13:56:14.560Z,356
2016-11-12T13:57:14.567Z,360
2016-11-12T13:58:14.566Z,364
2016-11-12T13:59:14.576Z,376
2016-11-12T14:00:14.584Z,396
2016-11-12T14:01:14.592Z,436
2016-11-12T14:02:14.602Z,464
2016-11-12T14:03:14.620Z,456
2016-11-12T14:04:14.611Z,412
2016-11-12T14:05:14.621Z,376
2016-11-12T14:06:14.632Z,348
2016-11-12T14:07:14.698Z,324
2016-11-12T14:08:14.664Z,312
2016-11-12T14:09:14.672Z,312
2016-11-12T14:10:14.688Z,300
2016-11-12T14:11:14.707Z,284